createdAt,value
2018-09-25T00:02:04.921Z,7.50
2018-09-25T00:04:38.683Z,7.50
2018-09-25T00:07:12.296Z,7.50
2018-09-25T00:09:46.701Z,7.50
2018-09-25T00:12:20.292Z,7.50
2018-09-25T00:14:53.857Z,7.40
2018-09-25T00:17:27.393Z,7.40
2018-09-25T00:20:00.988Z,7.40
2018-09-25T00:22:34.538Z,7.40
2018-09-25T00:25:08.157Z,7.40
2018-09-25T00:27:41.563Z,7.40
2018-09-25T00:30:15.184Z,7.40
2018-09-25T00:32:48.713Z,7.40
2018-09-25T00:35:22.329Z,7.40
2018-09-25T00:37:55.819Z,7.30
2018-09-25T00:40:29.539Z,7.30
2018-09-25T00:43:03.153Z,7.30
2018-09-25T00:45:36.691Z,7.30
2018-09-25T00:48:10.291Z,7.20
2018-09-25T00:50:44.039Z,7.30
2018-09-25T00:53:24.463Z,7.30
2018-09-25T00:55:59.133Z,7.20
2018-09-25T00:58:33.557Z,7.30
2018-09-25T01:01:07.210Z,7.20
2018-09-25T01:03:40.704Z,7.20
2018-09-25T01:06:14.447Z,7.20
2018-09-25T01:08:47.975Z,7.20
2018-09-25T01:11:21.477Z,7.10
2018-09-25T01:13:55.217Z,7.10
2018-09-25T01:16:28.682Z,7.10
2018-09-25T01:19:02.324Z,7.10
2018-09-25T01:21:36.086Z,7.10
2018-09-25T01:24:09.872Z,7.10
2018-09-25T01:26:43.469Z,7.00
2018-09-25T01:29:16.878Z,7.00
2018-09-25T01:31:50.506Z,7.00
2018-09-25T01:34:24.159Z,7.00
2018-09-25T01:36:57.878Z,7.00
2018-09-25T01:39:31.568Z,7.00
2018-09-25T01:42:05.158Z,7.00
2018-09-25T01:44:38.828Z,7.00
2018-09-25T01:47:12.837Z,6.90
2018-09-25T01:49:47.281Z,6.90
2018-09-25T01:52:20.977Z,6.90
2018-09-25T01:54:54.482Z,6.90
2018-09-25T01:57:28.263Z,6.90
2018-09-25T02:00:01.869Z,6.90
2018-09-25T02:02:35.521Z,6.80
2018-09-25T02:05:09.193Z,6.80
2018-09-25T02:07:42.697Z,6.80
2018-09-25T02:10:16.393Z,6.80
2018-09-25T02:12:54.875Z,6.80
2018-09-25T02:15:28.597Z,6.80
2018-09-25T02:18:02.205Z,6.80
2018-09-25T02:20:35.923Z,6.80
2018-09-25T02:23:09.416Z,6.80
2018-09-25T02:25:43.013Z,6.80
2018-09-25T02:28:16.644Z,6.70
2018-09-25T02:30:50.317Z,6.70
2018-09-25T02:33:23.799Z,6.70
2018-09-25T02:35:57.527Z,6.70
2018-09-25T02:38:31.104Z,6.70
2018-09-25T02:41:04.733Z,6.70
2018-09-25T02:43:38.277Z,6.60
2018-09-25T02:46:11.933Z,6.70
2018-09-25T02:48:45.665Z,6.70
2018-09-25T02:51:19.251Z,6.70
2018-09-25T02:53:52.851Z,6.70
2018-09-25T02:56:26.472Z,6.70
2018-09-25T02:59:00.075Z,6.70
2018-09-25T03:01:33.797Z,6.60
2018-09-25T03:04:07.470Z,6.60
2018-09-25T03:06:41.275Z,6.60
2018-09-25T03:09:15.005Z,6.60
2018-09-25T03:11:48.713Z,6.60
2018-09-25T03:14:22.285Z,6.60
2018-09-25T03:16:56.121Z,6.50
2018-09-25T03:19:29.642Z,6.50
2018-09-25T03:22:03.283Z,6.60
2018-09-25T03:24:37.116Z,6.60
2018-09-25T03:27:10.589Z,6.50
2018-09-25T03:29:44.245Z,6.50
2018-09-25T03:32:17.875Z,6.50
2018-09-25T03:34:51.609Z,6.50
2018-09-25T03:37:25.121Z,6.40
2018-09-25T03:40:00.013Z,6.40
2018-09-25T03:42:33.681Z,6.40
2018-09-25T03:45:07.181Z,6.40
2018-09-25T03:47:40.695Z,6.40
2018-09-25T03:50:14.603Z,6.30
2018-09-25T03:52:49.191Z,6.30
2018-09-25T03:55:22.789Z,6.40
2018-09-25T03:57:56.450Z,6.30
2018-09-25T04:00:32.998Z,6.30
2018-09-25T04:03:06.650Z,6.30
2018-09-25T04:05:40.257Z,6.30
2018-09-25T04:08:13.898Z,6.30
2018-09-25T04:10:47.560Z,6.20
2018-09-25T04:13:21.239Z,6.20
2018-09-25T04:15:54.804Z,6.20
2018-09-25T04:18:28.379Z,6.20
2018-09-25T04:21:02.086Z,6.20
2018-09-25T04:23:35.671Z,6.20
2018-09-25T04:26:09.274Z,6.30
2018-09-25T04:28:43.220Z,6.20
2018-09-25T04:31:17.658Z,6.20
2018-09-25T04:33:51.241Z,6.20
2018-09-25T04:36:25.102Z,6.20
2018-09-25T04:38:58.852Z,6.10
2018-09-25T04:41:32.581Z,6.10
2018-09-25T04:44:06.262Z,6.10
2018-09-25T04:46:39.941Z,6.10
2018-09-25T04:49:13.529Z,6.10
2018-09-25T04:51:47.288Z,6.10
2018-09-25T04:54:20.827Z,6.10
2018-09-25T04:56:54.370Z,6.10
2018-09-25T04:59:28.078Z,6.10
2018-09-25T05:02:01.633Z,6.10
2018-09-25T05:04:35.086Z,6.10
2018-09-25T05:07:08.692Z,6.10
2018-09-25T05:09:42.237Z,6.10
2018-09-25T05:12:15.957Z,6.10
2018-09-25T05:14:49.487Z,6.10
2018-09-25T05:17:24.259Z,6.20
2018-09-25T05:19:58.055Z,6.20
2018-09-25T05:22:31.731Z,6.20
2018-09-25T05:25:05.456Z,6.20
2018-09-25T05:27:39.222Z,6.30
2018-09-25T05:30:12.681Z,6.30
2018-09-25T05:32:46.339Z,6.30
2018-09-25T05:35:20.051Z,6.30
2018-09-25T05:37:53.635Z,6.30
2018-09-25T05:40:27.233Z,6.30
2018-09-25T05:43:00.859Z,6.40
2018-09-25T05:45:34.553Z,6.40
2018-09-25T05:48:08.349Z,6.40
2018-09-25T05:50:41.956Z,6.50
2018-09-25T05:53:15.545Z,6.50
2018-09-25T05:55:49.074Z,6.50
2018-09-25T05:58:23.469Z,6.60
2018-09-25T06:00:57.180Z,6.70
2018-09-25T06:03:30.751Z,6.70
2018-09-25T06:06:04.450Z,6.70
2018-09-25T06:08:38.106Z,6.80
2018-09-25T06:11:11.779Z,7.00
2018-09-25T06:13:45.432Z,7.10
2018-09-25T06:16:19.263Z,7.30
2018-09-25T06:18:52.997Z,7.40
2018-09-25T06:21:26.580Z,7.60
2018-09-25T06:24:00.300Z,7.80
2018-09-25T06:26:33.903Z,7.90
2018-09-25T06:29:07.657Z,8.00
2018-09-25T06:31:41.238Z,8.10
2018-09-25T06:34:14.804Z,8.30
2018-09-25T06:36:48.542Z,8.40
2018-09-25T06:39:22.342Z,8.50
2018-09-25T06:41:56.074Z,8.50
2018-09-25T06:44:29.852Z,8.60
2018-09-25T06:47:03.564Z,8.70
2018-09-25T06:49:37.162Z,8.70
2018-09-25T06:52:10.760Z,8.70
2018-09-25T06:54:44.596Z,8.80
2018-09-25T06:57:18.145Z,8.80
2018-09-25T06:59:51.672Z,8.90
2018-09-25T07:02:25.206Z,9.00
2018-09-25T07:04:58.802Z,9.10
2018-09-25T07:07:32.493Z,9.10
2018-09-25T07:10:06.330Z,9.10
2018-09-25T07:12:40.128Z,9.10
2018-09-25T07:15:13.699Z,9.10
2018-09-25T07:17:47.467Z,9.20
2018-09-25T07:20:21.077Z,9.20
2018-09-25T07:22:54.807Z,9.20
2018-09-25T07:25:28.427Z,9.20
2018-09-25T07:28:02.483Z,9.20
2018-09-25T07:30:36.167Z,9.20
2018-09-25T07:33:09.707Z,9.20
2018-09-25T07:35:43.247Z,9.20
2018-09-25T07:38:17.471Z,9.20
2018-09-25T07:40:51.609Z,9.20
2018-09-25T07:43:25.419Z,9.30
2018-09-25T07:45:59.110Z,9.30
2018-09-25T07:48:32.586Z,9.40
2018-09-25T07:51:06.287Z,9.50
2018-09-25T07:53:40.444Z,9.50
2018-09-25T07:56:14.099Z,9.50
2018-09-25T07:58:47.672Z,9.50
2018-09-25T08:01:21.480Z,9.50
2018-09-25T08:03:55.139Z,9.50
2018-09-25T08:06:28.909Z,9.60
2018-09-25T08:09:02.824Z,9.70
2018-09-25T08:11:36.428Z,9.80
2018-09-25T08:14:09.999Z,9.90
2018-09-25T08:16:43.581Z,10.00
2018-09-25T08:19:17.179Z,10.00
2018-09-25T08:21:50.847Z,10.10
2018-09-25T08:24:24.592Z,10.10
2018-09-25T08:26:58.219Z,10.20
2018-09-25T08:29:31.740Z,10.30
2018-09-25T08:32:05.250Z,10.40
2018-09-25T08:34:39.091Z,10.50
2018-09-25T08:37:12.762Z,10.50
2018-09-25T08:39:46.177Z,10.60
2018-09-25T08:42:22.939Z,10.60
2018-09-25T08:44:56.652Z,10.70
2018-09-25T08:47:30.175Z,10.80
2018-09-25T08:50:03.710Z,10.80
2018-09-25T08:52:37.439Z,10.90
2018-09-25T08:55:11.230Z,10.90
2018-09-25T08:57:44.820Z,11.00
2018-09-25T09:00:18.523Z,11.10
2018-09-25T09:02:52.145Z,11.20
2018-09-25T09:05:25.825Z,11.20
2018-09-25T09:07:59.390Z,11.30
2018-09-25T09:10:33.034Z,11.40
2018-09-25T09:13:06.436Z,11.50
2018-09-25T09:15:40.106Z,11.60
2018-09-25T09:18:14.267Z,11.60
2018-09-25T09:20:48.011Z,11.70
2018-09-25T09:23:21.677Z,11.80
2018-09-25T09:25:55.335Z,11.80
2018-09-25T09:28:28.917Z,11.90
2018-09-25T09:31:02.487Z,12.10
2018-09-25T09:33:36.055Z,12.20
2018-09-25T09:36:09.653Z,12.30
2018-09-25T09:38:43.289Z,12.20
2018-09-25T09:41:17.527Z,12.30
2018-09-25T09:43:50.967Z,12.40
2018-09-25T09:46:24.507Z,12.50
2018-09-25T09:48:58.107Z,12.50
2018-09-25T09:51:31.801Z,12.60
2018-09-25T09:54:05.475Z,12.90
2018-09-25T09:56:39.248Z,13.10
2018-09-25T09:59:12.939Z,13.30
2018-09-25T10:01:46.623Z,13.30
2018-09-25T10:04:20.139Z,13.50
2018-09-25T10:06:53.908Z,13.70
2018-09-25T10:09:27.428Z,13.70
2018-09-25T10:12:01.642Z,13.80
2018-09-25T10:14:35.383Z,13.70
2018-09-25T10:17:09.249Z,13.80
2018-09-25T10:19:43.417Z,14.00
2018-09-25T10:22:17.016Z,14.20
2018-09-25T10:24:50.571Z,14.40
2018-09-25T10:27:24.237Z,14.40
2018-09-25T10:29:57.898Z,14.30
2018-09-25T10:32:31.551Z,14.20
2018-09-25T10:35:05.371Z,14.20
2018-09-25T10:37:39.147Z,14.10
2018-09-25T10:40:12.993Z,14.00
2018-09-25T10:42:46.537Z,14.10
2018-09-25T10:45:20.139Z,14.10
2018-09-25T10:47:54.004Z,14.20
2018-09-25T10:50:27.630Z,14.10
2018-09-25T10:53:01.354Z,14.00
2018-09-25T10:55:34.805Z,14.00
2018-09-25T10:58:08.473Z,13.90
2018-09-25T11:00:42.039Z,13.80
2018-09-25T11:03:15.660Z,13.80
2018-09-25T11:05:49.134Z,13.70
2018-09-25T11:08:23.350Z,13.40
2018-09-25T11:10:57.068Z,13.20
2018-09-25T11:13:30.500Z,13.10
2018-09-25T11:16:04.048Z,13.00
2018-09-25T11:18:37.668Z,12.90
2018-09-25T11:21:12.302Z,12.90
2018-09-25T11:23:45.868Z,13.10
2018-09-25T11:26:19.377Z,13.30
2018-09-25T11:28:52.942Z,13.50
2018-09-25T11:31:27.452Z,13.60
2018-09-25T11:34:01.148Z,13.60
2018-09-25T11:36:35.812Z,13.80
2018-09-25T11:39:10.556Z,14.10
2018-09-25T11:41:44.358Z,14.40
2018-09-25T11:44:18.126Z,14.40
2018-09-25T11:46:51.977Z,14.20
2018-09-25T11:49:25.530Z,14.10
2018-09-25T11:51:59.239Z,14.00
2018-09-25T11:54:33.007Z,14.20
2018-09-25T11:57:06.725Z,14.40
2018-09-25T11:59:40.390Z,14.60
2018-09-25T12:02:14.156Z,14.80
2018-09-25T12:04:47.923Z,14.90
2018-09-25T12:07:21.385Z,15.00
2018-09-25T12:09:55.140Z,15.10
2018-09-25T12:12:28.653Z,15.00
2018-09-25T12:15:02.303Z,15.00
2018-09-25T12:17:35.939Z,15.10
2018-09-25T12:20:09.779Z,15.10
2018-09-25T12:22:43.560Z,15.20
2018-09-25T12:25:17.121Z,15.20
2018-09-25T12:27:50.719Z,15.20
2018-09-25T12:30:24.347Z,15.10
2018-09-25T12:32:58.117Z,15.20
2018-09-25T12:35:31.838Z,15.10
2018-09-25T12:38:06.452Z,14.90
2018-09-25T12:40:40.057Z,14.70
2018-09-25T12:43:13.517Z,14.60
2018-09-25T12:45:47.159Z,14.80
2018-09-25T12:48:20.820Z,15.10
2018-09-25T12:50:54.527Z,15.30
2018-09-25T12:53:35.157Z,15.40
2018-09-25T12:56:08.898Z,15.50
2018-09-25T12:58:42.735Z,15.40
2018-09-25T13:01:16.377Z,15.40
2018-09-25T13:03:50.197Z,15.40
2018-09-25T13:06:23.909Z,15.40
2018-09-25T13:08:57.513Z,15.50
2018-09-25T13:11:31.226Z,15.60
2018-09-25T13:14:04.943Z,15.70
2018-09-25T13:16:38.364Z,15.90
2018-09-25T13:19:12.147Z,15.90
2018-09-25T13:21:45.929Z,15.80
2018-09-25T13:24:19.474Z,15.80
2018-09-25T13:26:53.140Z,15.80
2018-09-25T13:29:26.696Z,15.60
2018-09-25T13:32:00.377Z,15.40
2018-09-25T13:34:34.009Z,15.20
2018-09-25T13:37:07.650Z,15.20
2018-09-25T13:39:41.246Z,15.00
2018-09-25T13:42:14.781Z,14.90
2018-09-25T13:44:48.340Z,14.90
2018-09-25T13:47:22.729Z,15.00
2018-09-25T13:49:56.444Z,15.00
2018-09-25T13:52:30.103Z,15.00
2018-09-25T13:55:03.792Z,15.00
2018-09-25T13:57:37.447Z,15.10
2018-09-25T14:00:11.075Z,15.10
2018-09-25T14:02:44.836Z,15.10
2018-09-25T14:05:18.539Z,15.10
2018-09-25T14:07:52.053Z,15.20
2018-09-25T14:10:25.697Z,15.40
2018-09-25T14:12:59.335Z,15.50
2018-09-25T14:15:33.006Z,15.60
2018-09-25T14:18:06.715Z,15.50
2018-09-25T14:20:40.417Z,15.50
2018-09-25T14:23:14.238Z,15.50
2018-09-25T14:25:48.833Z,15.60
2018-09-25T14:28:22.487Z,15.60
2018-09-25T14:30:56.188Z,15.60
2018-09-25T14:33:30.007Z,15.50
2018-09-25T14:36:03.755Z,15.40
2018-09-25T14:38:38.553Z,15.40
2018-09-25T14:41:12.191Z,15.30
2018-09-25T14:43:46.451Z,15.10
2018-09-25T14:46:20.257Z,15.00
2018-09-25T14:48:53.975Z,14.80
2018-09-25T14:51:27.764Z,14.80
2018-09-25T14:54:01.385Z,14.80
2018-09-25T14:56:34.905Z,14.80
2018-09-25T14:59:08.444Z,14.80
2018-09-25T15:01:43.452Z,14.70
2018-09-25T15:04:17.605Z,14.60
2018-09-25T15:06:52.919Z,14.50
2018-09-25T15:09:26.518Z,14.50
2018-09-25T15:12:00.111Z,14.50
2018-09-25T15:14:33.787Z,14.50
2018-09-25T15:17:07.541Z,14.50
2018-09-25T15:19:41.174Z,14.50
2018-09-25T15:22:15.090Z,14.30
2018-09-25T15:24:48.316Z,14.20
2018-09-25T15:27:22.095Z,14.00
2018-09-25T15:29:55.926Z,14.00
2018-09-25T15:32:29.526Z,14.00
2018-09-25T15:35:03.148Z,13.90
2018-09-25T15:37:36.767Z,13.90
2018-09-25T15:40:10.749Z,13.80
2018-09-25T15:42:44.269Z,13.80
2018-09-25T15:45:17.714Z,13.70
2018-09-25T15:47:51.452Z,13.60
2018-09-25T15:50:25.153Z,13.60
2018-09-25T15:52:58.867Z,13.50
2018-09-25T15:55:32.599Z,13.50
2018-09-25T15:58:06.327Z,13.50
2018-09-25T16:00:40.114Z,13.40
2018-09-25T16:03:13.723Z,13.30
2018-09-25T16:05:47.209Z,13.30
2018-09-25T16:08:20.891Z,13.30
2018-09-25T16:10:54.624Z,13.30
2018-09-25T16:13:29.271Z,13.30
2018-09-25T16:16:03.093Z,13.20
2018-09-25T16:18:36.716Z,13.20
2018-09-25T16:21:10.285Z,13.20
2018-09-25T16:23:43.838Z,13.10
2018-09-25T16:26:17.601Z,13.10
2018-09-25T16:28:51.175Z,13.00
2018-09-25T16:31:24.869Z,12.90
2018-09-25T16:33:58.541Z,12.90
2018-09-25T16:36:32.285Z,12.90
2018-09-25T16:39:05.991Z,12.80
2018-09-25T16:41:40.109Z,12.80
2018-09-25T16:44:13.741Z,12.70
2018-09-25T16:46:47.415Z,12.60
2018-09-25T16:49:21.177Z,12.60
2018-09-25T16:51:54.847Z,12.60
2018-09-25T16:54:28.342Z,12.50
2018-09-25T16:57:01.904Z,12.50
2018-09-25T16:59:35.516Z,12.40
2018-09-25T17:02:09.248Z,12.30
2018-09-25T17:04:42.989Z,12.20
2018-09-25T17:07:16.729Z,12.10
2018-09-25T17:09:50.269Z,12.10
2018-09-25T17:12:23.932Z,12.00
2018-09-25T17:14:58.311Z,11.90
2018-09-25T17:17:32.004Z,11.90
2018-09-25T17:20:05.722Z,11.80
2018-09-25T17:22:39.303Z,11.70
2018-09-25T17:25:14.011Z,11.60
2018-09-25T17:27:47.739Z,11.60
2018-09-25T17:30:21.417Z,11.50
2018-09-25T17:32:55.126Z,11.40
2018-09-25T17:35:28.664Z,11.30
2018-09-25T17:38:02.363Z,11.30
2018-09-25T17:40:35.997Z,11.30
2018-09-25T17:43:09.608Z,11.20
2018-09-25T17:45:43.065Z,11.10
2018-09-25T17:48:17.490Z,11.00
2018-09-25T17:50:50.933Z,11.00
2018-09-25T17:53:25.587Z,10.90
2018-09-25T17:55:59.134Z,10.90
2018-09-25T17:58:33.553Z,10.80
2018-09-25T18:01:07.196Z,10.80
2018-09-25T18:03:40.816Z,10.70
2018-09-25T18:06:14.380Z,10.70
2018-09-25T18:08:48.005Z,10.70
2018-09-25T18:11:21.574Z,10.60
2018-09-25T18:13:55.171Z,10.60
2018-09-25T18:16:28.856Z,10.50
2018-09-25T18:19:02.547Z,10.50
2018-09-25T18:21:36.240Z,10.40
2018-09-25T18:24:09.651Z,10.40
2018-09-25T18:26:43.315Z,10.40
2018-09-25T18:29:16.788Z,10.30
2018-09-25T18:31:50.478Z,10.20
2018-09-25T18:34:24.311Z,10.20
2018-09-25T18:36:57.929Z,10.10
2018-09-25T18:39:31.565Z,10.10
2018-09-25T18:42:05.101Z,10.10
2018-09-25T18:44:38.890Z,10.10
2018-09-25T18:47:12.599Z,10.10
2018-09-25T18:49:46.235Z,10.10
2018-09-25T18:52:19.877Z,10.10
2018-09-25T18:54:53.505Z,10.10
2018-09-25T18:57:27.241Z,10.00
2018-09-25T19:00:00.955Z,10.00
2018-09-25T19:02:34.590Z,9.90
2018-09-25T19:05:08.151Z,9.90
2018-09-25T19:07:41.645Z,9.80
2018-09-25T19:10:15.405Z,9.80
2018-09-25T19:12:49.008Z,9.80
2018-09-25T19:15:22.861Z,9.70
2018-09-25T19:17:56.460Z,9.70
2018-09-25T19:20:30.822Z,9.60
2018-09-25T19:23:04.401Z,9.60
2018-09-25T19:25:38.088Z,9.60
2018-09-25T19:28:11.745Z,9.60
2018-09-25T19:30:45.669Z,9.50
2018-09-25T19:33:19.644Z,9.50
2018-09-25T19:35:53.406Z,9.50
2018-09-25T19:38:26.973Z,9.50
2018-09-25T19:41:00.638Z,9.50
2018-09-25T19:43:34.368Z,9.50
2018-09-25T19:46:07.913Z,9.50
2018-09-25T19:48:41.654Z,9.50
2018-09-25T19:51:15.985Z,9.50
2018-09-25T19:53:49.688Z,9.40
2018-09-25T19:56:23.401Z,9.40
2018-09-25T19:58:57.149Z,9.40
2018-09-25T20:01:30.735Z,9.30
2018-09-25T20:04:04.444Z,9.30
2018-09-25T20:06:38.087Z,9.20
2018-09-25T20:09:13.806Z,9.20
2018-09-25T20:11:47.871Z,9.20
2018-09-25T20:14:21.690Z,9.10
2018-09-25T20:16:55.400Z,9.10
2018-09-25T20:19:29.184Z,9.00
2018-09-25T20:22:02.799Z,9.00
2018-09-25T20:24:36.442Z,9.00
2018-09-25T20:27:10.193Z,8.90
2018-09-25T20:29:43.968Z,8.90
2018-09-25T20:32:17.581Z,8.90
2018-09-25T20:34:51.290Z,8.90
2018-09-25T20:40:04.061Z,8.90
2018-09-25T20:42:37.676Z,8.90
2018-09-25T20:45:11.327Z,8.90
2018-09-25T20:47:44.947Z,8.80
2018-09-25T20:50:18.529Z,8.80
2018-09-25T20:52:52.233Z,8.70
2018-09-25T20:55:25.865Z,8.70
2018-09-25T20:57:59.383Z,8.70
2018-09-25T21:00:33.130Z,8.60
2018-09-25T21:03:06.913Z,8.70
2018-09-25T21:05:40.397Z,8.60
2018-09-25T21:08:14.200Z,8.60
2018-09-25T21:10:47.594Z,8.50
2018-09-25T21:13:21.101Z,8.50
2018-09-25T21:15:55.550Z,8.50
2018-09-25T21:18:29.358Z,8.40
2018-09-25T21:21:03.161Z,8.40
2018-09-25T21:23:36.862Z,8.40
2018-09-25T21:26:10.395Z,8.40
2018-09-25T21:28:44.225Z,8.30
2018-09-25T21:31:17.743Z,8.30
2018-09-25T21:33:51.268Z,8.30
2018-09-25T21:36:24.943Z,8.30
2018-09-25T21:38:58.472Z,8.30
2018-09-25T21:41:32.060Z,8.30
2018-09-25T21:44:05.749Z,8.30
2018-09-25T21:46:39.405Z,8.30
2018-09-25T21:49:12.880Z,8.30
2018-09-25T21:51:46.553Z,8.20
2018-09-25T21:54:20.101Z,8.20
2018-09-25T21:56:53.780Z,8.20
2018-09-25T21:59:27.427Z,8.20
2018-09-25T22:02:01.525Z,8.20
2018-09-25T22:04:35.124Z,8.20
2018-09-25T22:07:08.677Z,8.20
2018-09-25T22:09:42.494Z,8.10
2018-09-25T22:12:16.791Z,8.20
2018-09-25T22:14:50.370Z,8.10
2018-09-25T22:17:23.877Z,8.10
2018-09-25T22:19:57.767Z,8.10
2018-09-25T22:22:31.442Z,8.10
2018-09-25T22:25:05.315Z,8.00
2018-09-25T22:27:39.290Z,8.00
2018-09-25T22:30:13.051Z,8.00
2018-09-25T22:32:46.801Z,8.00
2018-09-25T22:35:20.229Z,7.90
2018-09-25T22:37:54.003Z,7.90
2018-09-25T22:40:27.767Z,7.90
2018-09-25T22:43:01.382Z,7.90
2018-09-25T22:45:34.876Z,8.00
2018-09-25T22:48:08.511Z,8.00
2018-09-25T22:50:42.126Z,7.90
2018-09-25T22:53:15.659Z,7.80
2018-09-25T22:55:49.242Z,7.80
2018-09-25T22:58:22.865Z,7.70
2018-09-25T23:00:56.319Z,7.70
2018-09-25T23:03:29.798Z,7.70
2018-09-25T23:06:03.541Z,7.70
2018-09-25T23:08:37.119Z,7.70
2018-09-25T23:11:10.991Z,7.70
2018-09-25T23:13:44.531Z,7.70
2018-09-25T23:16:18.170Z,7.70
2018-09-25T23:18:51.891Z,7.80
2018-09-25T23:21:25.322Z,7.80
2018-09-25T23:23:58.869Z,7.80
2018-09-25T23:26:33.234Z,7.70
2018-09-25T23:29:06.885Z,7.70
2018-09-25T23:31:40.491Z,7.70
2018-09-25T23:34:14.118Z,7.70
2018-09-25T23:36:47.956Z,7.70
2018-09-25T23:39:20.352Z,7.70
2018-09-25T23:41:52.911Z,7.70
2018-09-25T23:44:27.264Z,7.70
2018-09-25T23:47:00.880Z,7.60
2018-09-25T23:49:33.838Z,7.50
2018-09-25T23:52:39.964Z,7.50
2018-09-25T23:55:17.388Z,7.40
2018-09-25T23:57:51.077Z,7.40
